createdAt,value
2022-11-06T00:02:20.956Z,17.53
2022-11-06T00:04:48.773Z,18.77
2022-11-06T00:07:16.279Z,19.10
2022-11-06T00:09:43.710Z,20.07
2022-11-06T00:12:11.098Z,24.27
2022-11-06T00:14:38.474Z,34.00
2022-11-06T00:17:05.907Z,27.13
2022-11-06T00:19:33.270Z,24.87
2022-11-06T00:22:00.724Z,22.47
2022-11-06T00:24:28.450Z,21.07
2022-11-06T00:26:55.809Z,24.30
2022-11-06T00:29:23.384Z,30.33
2022-11-06T00:31:51.113Z,33.33
2022-11-06T00:34:18.520Z,27.43
2022-11-06T00:36:46.006Z,25.17
2022-11-06T00:39:13.490Z,25.07
2022-11-06T00:41:40.863Z,25.60
2022-11-06T00:44:10.644Z,22.67
2022-11-06T00:46:38.344Z,22.07
2022-11-06T00:49:06.017Z,23.87
2022-11-06T00:51:39.598Z,23.60
2022-11-06T00:54:11.183Z,26.87
2022-11-06T00:56:38.871Z,26.37
2022-11-06T00:59:10.314Z,21.07
2022-11-06T01:01:41.895Z,24.40
2022-11-06T01:04:15.798Z,21.80
2022-11-06T01:06:46.750Z,23.63
2022-11-06T01:09:18.519Z,24.27
2022-11-06T01:14:40.342Z,16.57
2022-11-06T01:17:07.908Z,13.23
2022-11-06T01:19:35.433Z,13.97
2022-11-06T01:22:03.065Z,13.70
2022-11-06T01:24:30.608Z,11.67
2022-11-06T01:27:25.513Z,12.10
2022-11-06T01:29:46.018Z,10.97
2022-11-06T01:32:13.456Z,11.50
2022-11-06T01:34:41.024Z,11.10
2022-11-06T01:37:13.233Z,10.67
2022-11-06T01:39:42.320Z,10.67
2022-11-06T01:42:16.200Z,10.63
2022-11-06T01:44:43.568Z,10.57
2022-11-06T01:47:28.753Z,9.70
2022-11-06T01:50:01.682Z,10.13
2022-11-06T01:52:31.367Z,10.77
2022-11-06T01:55:08.879Z,12.30
2022-11-06T01:57:36.463Z,11.20
2022-11-06T02:00:06.691Z,10.57
2022-11-06T02:02:34.691Z,15.03
2022-11-06T02:05:02.478Z,19.80
2022-11-06T02:07:30.214Z,15.93
2022-11-06T02:09:57.590Z,15.10
2022-11-06T02:12:52.280Z,13.40
2022-11-06T02:15:39.668Z,13.33
2022-11-06T02:18:23.851Z,12.30
2022-11-06T02:21:27.486Z,12.57
2022-11-06T02:24:18.981Z,11.67
2022-11-06T02:27:16.184Z,13.70
2022-11-06T02:30:09.584Z,13.50
2022-11-06T02:32:45.715Z,13.00
2022-11-06T02:35:30.461Z,13.43
2022-11-06T02:38:05.833Z,13.10
2022-11-06T02:40:38.258Z,12.87
2022-11-06T02:43:08.582Z,12.67
2022-11-06T02:46:27.020Z,12.47
2022-11-06T02:49:03.830Z,13.37
2022-11-06T02:51:41.251Z,13.93
2022-11-06T02:54:10.874Z,13.20
2022-11-06T02:56:42.506Z,16.23
2022-11-06T02:59:23.422Z,12.33
2022-11-06T03:01:57.746Z,13.10
2022-11-06T03:04:41.978Z,17.17
2022-11-06T03:07:22.680Z,13.80
2022-11-06T03:09:50.906Z,12.27
2022-11-06T03:12:54.903Z,11.97
2022-11-06T03:15:37.375Z,11.70
2022-11-06T03:18:28.641Z,12.17
2022-11-06T03:21:07.618Z,11.77
2022-11-06T03:23:45.298Z,14.50
2022-11-06T03:26:27.747Z,16.30
2022-11-06T03:29:01.023Z,16.40
2022-11-06T03:31:41.071Z,20.87
2022-11-06T03:34:19.707Z,18.43
2022-11-06T03:36:57.343Z,14.23
2022-11-06T03:39:35.648Z,12.60
2022-11-06T03:42:14.001Z,12.70
2022-11-06T03:44:48.734Z,11.80
2022-11-06T03:47:26.750Z,13.47
2022-11-06T03:50:34.595Z,11.80
2022-11-06T03:53:26.818Z,12.60
2022-11-06T03:56:07.756Z,13.33
2022-11-06T03:58:40.696Z,14.57
2022-11-06T04:01:12.378Z,14.53
2022-11-06T04:03:56.970Z,13.40
2022-11-06T04:06:48.848Z,13.10
2022-11-06T04:09:37.010Z,12.10
2022-11-06T04:12:25.189Z,12.40
2022-11-06T04:14:57.164Z,9.67
2022-11-06T04:17:29.289Z,8.87
2022-11-06T04:20:02.206Z,8.37
2022-11-06T04:22:46.111Z,7.67
2022-11-06T04:25:47.979Z,7.93
2022-11-06T04:28:44.027Z,8.73
2022-11-06T04:31:46.483Z,9.13
2022-11-06T04:34:59.696Z,8.00
2022-11-06T04:38:00.906Z,8.37
2022-11-06T04:41:05.461Z,7.77
2022-11-06T04:43:50.487Z,8.70
2022-11-06T04:46:28.197Z,8.37
2022-11-06T04:48:56.427Z,8.43
2022-11-06T04:51:30.376Z,9.83
2022-11-06T04:53:58.429Z,8.50
2022-11-06T04:56:38.000Z,8.50
2022-11-06T04:59:17.751Z,8.53
2022-11-06T05:01:47.367Z,7.90
2022-11-06T05:04:15.063Z,7.97
2022-11-06T05:06:42.591Z,7.27
2022-11-06T05:09:10.195Z,8.80
2022-11-06T05:11:38.619Z,11.97
2022-11-06T05:14:06.244Z,8.50
2022-11-06T05:16:33.721Z,8.57
2022-11-06T05:19:01.150Z,8.83
2022-11-06T05:21:46.778Z,9.33
2022-11-06T05:24:14.314Z,8.93
2022-11-06T05:26:41.863Z,8.30
2022-11-06T05:29:09.532Z,9.50
2022-11-06T05:31:36.949Z,10.33
2022-11-06T05:34:04.522Z,10.47
2022-11-06T05:36:31.952Z,11.37
2022-11-06T05:38:59.434Z,13.53
2022-11-06T05:41:27.254Z,13.23
2022-11-06T05:43:54.677Z,13.20
2022-11-06T05:46:47.152Z,14.80
2022-11-06T05:49:09.947Z,13.03
2022-11-06T05:51:37.436Z,14.23
2022-11-06T05:54:04.982Z,12.40
2022-11-06T05:56:32.428Z,11.50
2022-11-06T05:58:59.882Z,13.57
2022-11-06T06:01:27.448Z,29.83
2022-11-06T06:03:54.924Z,23.37
2022-11-06T06:06:22.472Z,24.67
2022-11-06T06:08:49.884Z,19.63
2022-11-06T06:11:17.334Z,19.43
2022-11-06T06:13:44.798Z,31.87
2022-11-06T06:16:12.233Z,37.67
2022-11-06T06:18:39.721Z,31.47
2022-11-06T06:21:07.171Z,30.17
2022-11-06T06:23:34.647Z,22.63
2022-11-06T06:26:02.075Z,12.63
2022-11-06T06:28:29.527Z,13.30
2022-11-06T06:31:01.290Z,12.73
2022-11-06T06:33:29.491Z,12.53
2022-11-06T06:35:57.112Z,14.00
2022-11-06T06:38:26.104Z,15.47
2022-11-06T06:40:54.350Z,15.20
2022-11-06T06:43:21.794Z,15.83
2022-11-06T06:45:49.601Z,16.57
2022-11-06T06:48:17.131Z,15.87
2022-11-06T06:50:44.570Z,12.77
2022-11-06T06:53:13.507Z,11.97
2022-11-06T06:55:42.155Z,14.33
2022-11-06T06:58:16.624Z,13.33
2022-11-06T07:00:45.695Z,12.87
2022-11-06T07:03:13.345Z,16.70
2022-11-06T07:05:41.022Z,13.20
2022-11-06T07:08:08.402Z,12.53
2022-11-06T07:10:36.350Z,12.53
2022-11-06T07:13:06.914Z,12.37
2022-11-06T07:15:34.393Z,12.97
2022-11-06T07:18:06.479Z,13.93
2022-11-06T07:20:35.366Z,14.40
2022-11-06T07:23:07.928Z,13.40
2022-11-06T07:25:36.332Z,11.93
2022-11-06T07:28:06.383Z,12.33
2022-11-06T07:30:35.801Z,11.80
2022-11-06T07:33:04.920Z,11.83
2022-11-06T07:35:35.605Z,12.07
2022-11-06T07:38:07.459Z,12.20
2022-11-06T07:40:35.884Z,12.57
2022-11-06T07:43:08.246Z,13.00
2022-11-06T07:45:35.830Z,12.57
2022-11-06T07:48:03.867Z,12.03
2022-11-06T07:50:31.825Z,11.60
2022-11-06T07:53:03.321Z,11.57
2022-11-06T07:55:30.838Z,12.23
2022-11-06T07:57:59.728Z,12.77
2022-11-06T08:00:27.511Z,11.80
2022-11-06T08:02:55.041Z,10.90
2022-11-06T08:05:22.547Z,12.33
2022-11-06T08:07:50.013Z,11.97
2022-11-06T08:10:17.911Z,11.97
2022-11-06T08:12:45.308Z,12.27
2022-11-06T08:15:12.781Z,20.23
2022-11-06T08:17:40.233Z,14.10
2022-11-06T08:20:09.138Z,12.57
2022-11-06T08:22:36.581Z,32.63
2022-11-06T08:25:04.528Z,11.80
2022-11-06T08:27:33.229Z,11.00
2022-11-06T08:30:00.685Z,11.63
2022-11-06T08:32:29.047Z,10.77
2022-11-06T08:34:56.760Z,10.73
2022-11-06T08:37:24.143Z,13.43
2022-11-06T08:39:51.529Z,13.17
2022-11-06T08:42:18.996Z,12.57
2022-11-06T08:44:46.432Z,19.50
2022-11-06T08:47:13.811Z,15.07
2022-11-06T08:49:43.651Z,11.77
2022-11-06T08:52:11.087Z,13.00
2022-11-06T08:54:38.537Z,13.20
2022-11-06T08:57:06.007Z,13.03
2022-11-06T08:59:33.481Z,14.60
2022-11-06T09:02:01.522Z,12.43
2022-11-06T09:04:29.060Z,13.63
2022-11-06T09:06:58.540Z,12.37
2022-11-06T09:09:32.158Z,12.50
2022-11-06T09:12:01.544Z,13.00
2022-11-06T09:14:29.062Z,13.37
2022-11-06T09:16:56.500Z,14.30
2022-11-06T09:19:24.547Z,15.43
2022-11-06T09:21:54.899Z,14.80
2022-11-06T09:24:43.326Z,14.30
2022-11-06T09:27:10.115Z,14.60
2022-11-06T09:29:40.969Z,13.87
2022-11-06T09:32:08.405Z,14.60
2022-11-06T09:34:35.870Z,14.40
2022-11-06T09:37:03.686Z,14.73
2022-11-06T09:39:31.105Z,14.10
2022-11-06T09:42:21.615Z,13.93
2022-11-06T09:45:22.941Z,14.20
2022-11-06T09:47:59.247Z,13.97
2022-11-06T09:50:34.558Z,15.07
2022-11-06T09:53:29.118Z,14.00
2022-11-06T09:55:58.584Z,14.63
2022-11-06T09:58:34.516Z,15.00
2022-11-06T10:01:19.551Z,18.27
2022-11-06T10:04:02.941Z,20.33
2022-11-06T10:06:30.709Z,21.70
2022-11-06T10:09:02.772Z,20.13
2022-11-06T10:11:55.506Z,17.80
2022-11-06T10:15:08.897Z,16.43
2022-11-06T10:18:12.790Z,15.97
2022-11-06T10:20:57.780Z,14.43
2022-11-06T10:24:24.194Z,13.60
2022-11-06T10:26:58.543Z,12.67
2022-11-06T10:30:03.939Z,9.77
2022-11-06T10:33:10.213Z,8.97
2022-11-06T10:35:44.403Z,8.90
2022-11-06T10:38:18.045Z,8.40
2022-11-06T10:40:53.881Z,8.60
2022-11-06T10:43:53.858Z,8.17
2022-11-06T10:46:35.604Z,8.33
2022-11-06T10:49:34.964Z,7.03
2022-11-06T10:52:21.067Z,6.07
2022-11-06T10:55:09.527Z,5.83
2022-11-06T10:57:58.153Z,5.10
2022-11-06T11:00:26.994Z,4.33
2022-11-06T11:02:59.271Z,3.87
2022-11-06T11:05:37.680Z,4.30
2022-11-06T11:08:05.491Z,3.13
2022-11-06T11:10:37.447Z,2.63
2022-11-06T11:13:08.692Z,2.90
2022-11-06T11:15:46.869Z,2.90
2022-11-06T11:18:20.518Z,2.97
2022-11-06T11:21:05.470Z,2.67
2022-11-06T11:23:33.297Z,3.20
2022-11-06T11:26:27.799Z,3.23
2022-11-06T11:29:01.682Z,3.03
2022-11-06T11:31:34.840Z,3.50
2022-11-06T11:34:16.592Z,2.30
2022-11-06T11:36:59.406Z,2.47
2022-11-06T11:39:34.243Z,2.50
2022-11-06T11:42:33.092Z,2.50
2022-11-06T11:45:26.937Z,2.33
2022-11-06T11:48:14.312Z,2.27
2022-11-06T11:50:42.092Z,1.80
2022-11-06T11:53:21.085Z,1.77
2022-11-06T11:55:51.014Z,1.97
2022-11-06T11:58:33.236Z,1.30
2022-11-06T12:01:04.205Z,1.70
2022-11-06T12:03:42.105Z,1.10
2022-11-06T12:06:16.916Z,1.50
2022-11-06T12:08:53.294Z,1.10
2022-11-06T12:11:26.735Z,1.80
2022-11-06T12:14:22.072Z,1.70
2022-11-06T12:16:53.772Z,3.10
2022-11-06T12:19:23.813Z,3.30
2022-11-06T12:22:05.767Z,1.83
2022-11-06T12:24:46.602Z,1.83
2022-11-06T12:27:28.188Z,1.57
2022-11-06T12:30:09.782Z,1.57
2022-11-06T12:33:06.331Z,1.87
2022-11-06T12:35:42.710Z,1.80
2022-11-06T12:38:31.135Z,1.33
2022-11-06T12:41:22.618Z,2.13
2022-11-06T12:43:51.760Z,1.97
2022-11-06T12:46:59.515Z,1.83
2022-11-06T12:49:52.063Z,2.53
2022-11-06T12:53:08.106Z,1.67
2022-11-06T12:55:52.011Z,1.70
2022-11-06T12:58:44.429Z,1.90
2022-11-06T13:01:25.628Z,2.73
2022-11-06T13:04:17.998Z,2.00
2022-11-06T13:07:10.029Z,1.90
2022-11-06T13:10:07.612Z,1.80
2022-11-06T13:13:15.772Z,2.07
2022-11-06T13:16:10.184Z,1.70
2022-11-06T13:18:43.224Z,2.03
2022-11-06T13:21:23.846Z,2.17
2022-11-06T13:23:54.981Z,1.87
2022-11-06T13:26:48.567Z,2.93
2022-11-06T13:29:18.407Z,3.07
2022-11-06T13:32:04.609Z,3.23
2022-11-06T13:34:38.649Z,1.90
2022-11-06T13:37:21.719Z,1.53
2022-11-06T13:39:59.745Z,2.03
2022-11-06T13:42:33.389Z,3.00
2022-11-06T13:45:01.829Z,2.80
2022-11-06T13:47:54.188Z,1.83
2022-11-06T13:50:44.362Z,1.73
2022-11-06T13:53:14.722Z,1.70
2022-11-06T13:56:18.418Z,2.47
2022-11-06T13:59:21.099Z,1.90
2022-11-06T14:01:59.210Z,2.30
2022-11-06T14:05:05.718Z,1.77
2022-11-06T14:07:34.603Z,2.10
2022-11-06T14:10:02.387Z,1.77
2022-11-06T14:12:29.947Z,2.00
2022-11-06T14:15:23.730Z,1.90
2022-11-06T14:18:01.680Z,1.40
2022-11-06T14:20:32.779Z,1.37
2022-11-06T14:23:31.023Z,1.43
2022-11-06T14:26:02.416Z,1.80
2022-11-06T14:28:42.593Z,1.50
2022-11-06T14:32:06.710Z,1.50
2022-11-06T14:34:35.454Z,1.70
2022-11-06T14:37:29.871Z,2.47
2022-11-06T14:39:58.385Z,2.03
2022-11-06T14:42:46.287Z,2.83
2022-11-06T14:45:21.064Z,2.20
2022-11-06T14:47:54.472Z,2.00
2022-11-06T14:50:29.085Z,1.70
2022-11-06T14:53:02.675Z,2.20
2022-11-06T14:55:45.366Z,2.07
2022-11-06T14:58:27.191Z,2.40
2022-11-06T15:01:11.227Z,2.30
2022-11-06T15:03:44.529Z,2.50
2022-11-06T15:06:17.706Z,2.80
2022-11-06T15:08:50.868Z,2.40
2022-11-06T15:11:30.161Z,3.00
2022-11-06T15:14:04.634Z,7.43
2022-11-06T15:16:43.649Z,5.97
2022-11-06T15:19:43.074Z,5.27
2022-11-06T15:22:42.104Z,8.10
2022-11-06T15:25:27.594Z,7.03
2022-11-06T15:28:16.184Z,6.30
2022-11-06T15:31:07.743Z,6.67
2022-11-06T15:33:54.457Z,5.33
2022-11-06T15:36:23.797Z,5.47
2022-11-06T15:38:51.340Z,6.13
2022-11-06T15:41:23.827Z,6.10
2022-11-06T15:43:55.214Z,7.33
2022-11-06T15:46:28.716Z,8.07
2022-11-06T15:49:17.956Z,9.33
2022-11-06T15:52:02.841Z,11.47
2022-11-06T15:54:38.422Z,17.03
2022-11-06T15:57:28.281Z,15.90
2022-11-06T16:00:21.115Z,10.30
2022-11-06T16:02:51.656Z,12.17
2022-11-06T16:05:21.971Z,11.53
2022-11-06T16:07:50.817Z,10.27
2022-11-06T16:10:21.176Z,8.70
2022-11-06T16:12:50.283Z,8.20
2022-11-06T16:15:45.476Z,9.57
2022-11-06T16:18:32.882Z,9.37
2022-11-06T16:21:21.914Z,10.27
2022-11-06T16:23:57.317Z,15.10
2022-11-06T16:26:32.281Z,16.03
2022-11-06T16:29:01.598Z,10.73
2022-11-06T16:31:31.473Z,10.00
2022-11-06T16:34:33.268Z,10.23
2022-11-06T16:37:07.574Z,9.43
2022-11-06T16:39:56.182Z,10.03
2022-11-06T16:42:36.119Z,11.37
2022-11-06T16:45:21.433Z,11.20
2022-11-06T16:48:09.123Z,10.80
2022-11-06T16:50:51.703Z,10.33
2022-11-06T16:53:26.205Z,10.03
2022-11-06T16:56:06.183Z,9.80
2022-11-06T16:58:49.317Z,9.13
2022-11-06T17:01:20.874Z,10.00
2022-11-06T17:04:00.245Z,9.00
2022-11-06T17:06:34.444Z,9.00
2022-11-06T17:09:24.242Z,9.67
2022-11-06T17:11:54.003Z,9.93
2022-11-06T17:14:23.006Z,9.73
2022-11-06T17:17:00.314Z,9.47
2022-11-06T17:19:29.299Z,10.47
2022-11-06T17:21:57.552Z,11.07
2022-11-06T17:24:40.589Z,9.43
2022-11-06T17:27:08.075Z,10.10
2022-11-06T17:29:36.708Z,10.10
2022-11-06T17:32:04.641Z,9.70
2022-11-06T17:34:32.109Z,8.30
2022-11-06T17:36:59.578Z,8.97
2022-11-06T17:39:27.111Z,8.90
2022-11-06T17:41:54.701Z,8.93
2022-11-06T17:44:22.615Z,9.60
2022-11-06T17:46:50.309Z,9.20
2022-11-06T17:49:18.781Z,9.57
2022-11-06T17:51:50.892Z,10.10
2022-11-06T17:54:27.406Z,10.03
2022-11-06T17:56:57.023Z,7.83
2022-11-06T17:59:24.982Z,8.47
2022-11-06T18:01:54.212Z,7.90
2022-11-06T18:04:24.662Z,7.27
2022-11-06T18:06:53.227Z,6.70
2022-11-06T18:09:22.462Z,7.17
2022-11-06T18:11:51.375Z,7.20
2022-11-06T18:14:19.459Z,7.90
2022-11-06T18:16:47.113Z,10.47
2022-11-06T18:19:18.545Z,11.77
2022-11-06T18:21:47.111Z,11.43
2022-11-06T18:24:14.814Z,11.43
2022-11-06T18:26:42.565Z,11.90
2022-11-06T18:29:12.115Z,11.60
2022-11-06T18:31:39.998Z,11.37
2022-11-06T18:34:13.972Z,11.93
2022-11-06T18:36:44.293Z,11.73
2022-11-06T18:39:12.229Z,12.87
2022-11-06T18:41:39.826Z,13.20
2022-11-06T18:44:07.266Z,13.43
2022-11-06T18:46:35.001Z,13.00
2022-11-06T18:49:02.497Z,12.40
2022-11-06T18:51:36.062Z,14.40
2022-11-06T18:54:09.181Z,13.73
2022-11-06T18:56:37.462Z,13.37
2022-11-06T18:59:14.627Z,13.97
2022-11-06T19:01:42.157Z,15.37
2022-11-06T19:04:10.975Z,16.77
2022-11-06T19:06:40.344Z,18.83
2022-11-06T19:09:09.669Z,16.80
2022-11-06T19:11:37.342Z,16.60
2022-11-06T19:14:04.803Z,17.43
2022-11-06T19:16:32.300Z,16.40
2022-11-06T19:19:05.845Z,15.97
2022-11-06T19:21:34.694Z,15.23
2022-11-06T19:24:04.542Z,17.53
2022-11-06T19:26:37.499Z,26.43
2022-11-06T19:29:08.345Z,30.30
2022-11-06T19:31:37.830Z,25.60
2022-11-06T19:34:07.593Z,19.03
2022-11-06T19:36:36.131Z,17.83
2022-11-06T19:39:04.771Z,18.93
2022-11-06T19:41:32.158Z,17.10
2022-11-06T19:43:59.975Z,19.33
2022-11-06T19:46:33.844Z,19.30
2022-11-06T19:49:04.701Z,18.57
2022-11-06T19:51:33.661Z,18.00
2022-11-06T19:54:06.408Z,19.00
2022-11-06T19:56:34.147Z,30.27
2022-11-06T19:59:02.396Z,23.97
2022-11-06T20:01:29.999Z,19.30
2022-11-06T20:03:57.514Z,20.00
2022-11-06T20:06:24.907Z,16.87
2022-11-06T20:08:52.312Z,24.47
2022-11-06T20:11:19.834Z,24.30
2022-11-06T20:13:47.680Z,19.57
2022-11-06T20:16:21.380Z,17.43
2022-11-06T20:18:58.186Z,21.17
2022-11-06T20:21:28.275Z,17.13
2022-11-06T20:23:58.630Z,27.03
2022-11-06T20:26:26.141Z,22.83
2022-11-06T20:28:53.569Z,20.73
2022-11-06T20:31:21.938Z,17.47
2022-11-06T20:33:50.404Z,15.93
2022-11-06T20:36:28.327Z,16.03
2022-11-06T20:39:00.152Z,16.83
2022-11-06T20:41:29.119Z,18.17
2022-11-06T20:43:58.363Z,18.00
2022-11-06T20:46:26.249Z,19.47
2022-11-06T20:48:53.757Z,19.13
2022-11-06T20:51:25.519Z,18.37
2022-11-06T20:53:53.726Z,17.27
2022-11-06T20:56:25.503Z,17.10
2022-11-06T20:58:57.277Z,16.90
2022-11-06T21:01:30.259Z,18.10
2022-11-06T21:03:58.517Z,18.40
2022-11-06T21:06:28.006Z,19.93
2022-11-06T21:08:56.325Z,21.00
2022-11-06T21:11:27.357Z,18.60
2022-11-06T21:13:56.393Z,20.50
2022-11-06T21:16:31.647Z,20.17
2022-11-06T21:19:00.851Z,18.67
2022-11-06T21:21:33.321Z,18.73
2022-11-06T21:24:02.471Z,18.30
2022-11-06T21:26:33.551Z,18.83
2022-11-06T21:29:04.516Z,17.93
2022-11-06T21:31:32.696Z,20.87
2022-11-06T21:34:03.072Z,21.13
2022-11-06T21:36:34.920Z,19.43
2022-11-06T21:39:13.390Z,19.20
2022-11-06T21:41:40.859Z,19.87
2022-11-06T21:44:11.926Z,18.40
2022-11-06T21:46:45.008Z,19.37
2022-11-06T21:49:13.765Z,18.03
2022-11-06T21:51:41.691Z,21.10
2022-11-06T21:54:42.545Z,20.83
2022-11-06T21:57:09.944Z,19.20
2022-11-06T21:59:41.439Z,20.00
2022-11-06T22:02:10.115Z,20.80
2022-11-06T22:04:37.721Z,20.93
2022-11-06T22:07:05.139Z,21.80
2022-11-06T22:09:32.571Z,21.23
2022-11-06T22:11:59.992Z,20.87
2022-11-06T22:14:27.633Z,20.43
2022-11-06T22:16:55.384Z,22.90
2022-11-06T22:19:22.825Z,23.03
2022-11-06T22:21:50.203Z,20.63
2022-11-06T22:24:17.614Z,22.60
2022-11-06T22:26:45.020Z,31.67
2022-11-06T22:29:14.327Z,40.33
2022-11-06T22:31:42.088Z,29.20
2022-11-06T22:34:12.357Z,35.83
2022-11-06T22:36:40.831Z,51.87
2022-11-06T22:39:09.597Z,35.83
2022-11-06T22:41:37.981Z,40.27
2022-11-06T22:44:06.900Z,41.83
2022-11-06T22:46:34.963Z,41.03
2022-11-06T22:49:04.349Z,35.77
2022-11-06T22:51:33.750Z,45.50
2022-11-06T22:54:02.417Z,42.23
2022-11-06T22:56:31.294Z,33.97
2022-11-06T22:59:05.115Z,34.83
2022-11-06T23:01:40.193Z,31.00
2022-11-06T23:04:15.360Z,29.97
2022-11-06T23:06:45.471Z,27.07
2022-11-06T23:09:13.932Z,26.23
2022-11-06T23:11:41.467Z,28.27
2022-11-06T23:14:09.640Z,29.27
2022-11-06T23:16:56.177Z,28.17
2022-11-06T23:19:24.796Z,27.40
2022-11-06T23:22:12.347Z,27.60
2022-11-06T23:24:40.004Z,26.63
2022-11-06T23:27:07.497Z,27.53
2022-11-06T23:29:34.894Z,26.17
2022-11-06T23:32:02.263Z,26.57
2022-11-06T23:34:29.690Z,26.80
2022-11-06T23:36:57.153Z,26.57
2022-11-06T23:39:24.580Z,26.03
2022-11-06T23:41:52.020Z,26.17
2022-11-06T23:44:38.081Z,25.47
2022-11-06T23:47:05.541Z,25.43
2022-11-06T23:49:32.933Z,25.73
2022-11-06T23:52:00.437Z,25.17
2022-11-06T23:54:28.059Z,24.50
2022-11-06T23:56:55.593Z,25.93
2022-11-06T23:59:23.310Z,24.63
